sensor_id;sensor_type;location;lat;lon;timestamp;P1;durP1;ratioP1;P2;durP2;ratioP2
3757;SDS011;1894;51.038;13.692;2022-08-03T00:00:25;3.70;;;3.00;;
3757;SDS011;1894;51.038;13.692;2022-08-03T00:02:52;8.90;;;3.93;;
3757;SDS011;1894;51.038;13.692;2022-08-03T00:05:19;8.60;;;4.03;;
3757;SDS011;1894;51.038;13.692;2022-08-03T00:07:47;6.10;;;3.47;;
3757;SDS011;1894;51.038;13.692;2022-08-03T00:10:15;5.43;;;2.80;;
3757;SDS011;1894;51.038;13.692;2022-08-03T00:12:42;4.13;;;2.70;;
3757;SDS011;1894;51.038;13.692;2022-08-03T00:15:09;2.77;;;2.33;;
3757;SDS011;1894;51.038;13.692;2022-08-03T00:17:42;5.73;;;2.93;;
3757;SDS011;1894;51.038;13.692;2022-08-03T00:20:19;3.60;;;2.73;;
3757;SDS011;1894;51.038;13.692;2022-08-03T00:22:47;3.60;;;3.30;;
3757;SDS011;1894;51.038;13.692;2022-08-03T00:25:14;6.80;;;3.90;;
3757;SDS011;1894;51.038;13.692;2022-08-03T00:27:41;3.70;;;3.40;;
3757;SDS011;1894;51.038;13.692;2022-08-03T00:30:09;5.47;;;3.13;;
3757;SDS011;1894;51.038;13.692;2022-08-03T00:32:36;3.83;;;3.40;;
3757;SDS011;1894;51.038;13.692;2022-08-03T00:35:09;4.67;;;3.23;;
3757;SDS011;1894;51.038;13.692;2022-08-03T00:37:57;3.57;;;3.27;;
3757;SDS011;1894;51.038;13.692;2022-08-03T00:40:24;4.03;;;3.07;;
3757;SDS011;1894;51.038;13.692;2022-08-03T00:45:21;4.10;;;3.40;;
3757;SDS011;1894;51.038;13.692;2022-08-03T00:47:50;3.50;;;3.00;;
3757;SDS011;1894;51.038;13.692;2022-08-03T00:50:18;3.23;;;2.90;;
3757;SDS011;1894;51.038;13.692;2022-08-03T00:52:48;3.57;;;3.23;;
3757;SDS011;1894;51.038;13.692;2022-08-03T00:55:17;4.30;;;3.17;;
3757;SDS011;1894;51.038;13.692;2022-08-03T00:57:44;4.37;;;3.93;;
3757;SDS011;1894;51.038;13.692;2022-08-03T01:00:13;2.70;;;2.47;;
3757;SDS011;1894;51.038;13.692;2022-08-03T01:02:43;3.77;;;3.30;;
3757;SDS011;1894;51.038;13.692;2022-08-03T01:05:10;4.60;;;3.60;;
3757;SDS011;1894;51.038;13.692;2022-08-03T01:07:45;3.13;;;2.83;;
3757;SDS011;1894;51.038;13.692;2022-08-03T01:13:06;4.37;;;3.00;;
3757;SDS011;1894;51.038;13.692;2022-08-03T01:16:26;4.60;;;3.30;;
3757;SDS011;1894;51.038;13.692;2022-08-03T01:19:16;9.97;;;3.77;;
3757;SDS011;1894;51.038;13.692;2022-08-03T01:30:44;3.70;;;3.40;;
3757;SDS011;1894;51.038;13.692;2022-08-03T01:33:22;5.77;;;4.00;;
3757;SDS011;1894;51.038;13.692;2022-08-03T01:35:56;8.13;;;3.87;;
3757;SDS011;1894;51.038;13.692;2022-08-03T01:38:38;4.43;;;3.23;;
3757;SDS011;1894;51.038;13.692;2022-08-03T01:41:23;4.50;;;3.57;;
3757;SDS011;1894;51.038;13.692;2022-08-03T01:43:55;4.70;;;3.63;;
3757;SDS011;1894;51.038;13.692;2022-08-03T01:46:45;6.47;;;3.53;;
3757;SDS011;1894;51.038;13.692;2022-08-03T01:49:15;4.80;;;3.83;;
3757;SDS011;1894;51.038;13.692;2022-08-03T01:51:43;8.03;;;4.33;;
3757;SDS011;1894;51.038;13.692;2022-08-03T01:54:34;5.00;;;3.73;;
3757;SDS011;1894;51.038;13.692;2022-08-03T01:57:03;5.17;;;3.47;;
3757;SDS011;1894;51.038;13.692;2022-08-03T01:59:31;5.03;;;3.87;;
3757;SDS011;1894;51.038;13.692;2022-08-03T02:02:00;5.00;;;4.07;;
3757;SDS011;1894;51.038;13.692;2022-08-03T02:04:51;3.97;;;3.33;;
3757;SDS011;1894;51.038;13.692;2022-08-03T02:07:21;3.70;;;3.40;;
3757;SDS011;1894;51.038;13.692;2022-08-03T02:09:51;8.63;;;3.90;;
3757;SDS011;1894;51.038;13.692;2022-08-03T02:12:21;6.20;;;3.97;;
3757;SDS011;1894;51.038;13.692;2022-08-03T02:14:49;4.53;;;3.80;;
3757;SDS011;1894;51.038;13.692;2022-08-03T02:17:17;8.70;;;5.20;;
3757;SDS011;1894;51.038;13.692;2022-08-03T02:20:06;5.70;;;4.50;;
3757;SDS011;1894;51.038;13.692;2022-08-03T02:22:34;4.73;;;4.33;;
3757;SDS011;1894;51.038;13.692;2022-08-03T02:25:04;5.60;;;4.07;;
3757;SDS011;1894;51.038;13.692;2022-08-03T02:27:33;9.40;;;4.80;;
3757;SDS011;1894;51.038;13.692;2022-08-03T02:30:08;4.70;;;4.20;;
3757;SDS011;1894;51.038;13.692;2022-08-03T02:32:38;7.97;;;4.60;;
3757;SDS011;1894;51.038;13.692;2022-08-03T02:35:10;5.53;;;4.67;;
3757;SDS011;1894;51.038;13.692;2022-08-03T02:37:49;4.47;;;4.07;;
3757;SDS011;1894;51.038;13.692;2022-08-03T02:40:21;5.03;;;4.57;;
3757;SDS011;1894;51.038;13.692;2022-08-03T02:42:50;7.93;;;4.30;;
3757;SDS011;1894;51.038;13.692;2022-08-03T02:45:20;6.80;;;5.10;;
3757;SDS011;1894;51.038;13.692;2022-08-03T02:47:52;6.10;;;4.20;;
3757;SDS011;1894;51.038;13.692;2022-08-03T02:50:23;11.50;;;4.20;;
3757;SDS011;1894;51.038;13.692;2022-08-03T02:52:52;7.23;;;4.37;;
3757;SDS011;1894;51.038;13.692;2022-08-03T02:55:23;9.03;;;4.07;;
3757;SDS011;1894;51.038;13.692;2022-08-03T02:57:53;4.90;;;4.33;;
3757;SDS011;1894;51.038;13.692;2022-08-03T03:00:21;6.93;;;3.73;;
3757;SDS011;1894;51.038;13.692;2022-08-03T03:02:57;7.10;;;4.20;;
3757;SDS011;1894;51.038;13.692;2022-08-03T03:05:25;5.20;;;4.13;;
3757;SDS011;1894;51.038;13.692;2022-08-03T03:08:14;4.57;;;4.17;;
3757;SDS011;1894;51.038;13.692;2022-08-03T03:10:46;6.70;;;4.50;;
3757;SDS011;1894;51.038;13.692;2022-08-03T03:13:20;5.20;;;4.67;;
3757;SDS011;1894;51.038;13.692;2022-08-03T03:15:48;6.23;;;4.60;;
3757;SDS011;1894;51.038;13.692;2022-08-03T03:18:16;5.20;;;4.70;;
3757;SDS011;1894;51.038;13.692;2022-08-03T03:20:48;5.30;;;4.13;;
3757;SDS011;1894;51.038;13.692;2022-08-03T03:23:17;7.00;;;4.60;;
3757;SDS011;1894;51.038;13.692;2022-08-03T03:25:50;11.30;;;4.50;;
3757;SDS011;1894;51.038;13.692;2022-08-03T03:28:18;4.80;;;4.40;;
3757;SDS011;1894;51.038;13.692;2022-08-03T03:30:46;7.87;;;5.43;;
3757;SDS011;1894;51.038;13.692;2022-08-03T03:33:18;6.27;;;3.90;;
3757;SDS011;1894;51.038;13.692;2022-08-03T03:35:47;6.77;;;5.20;;
3757;SDS011;1894;51.038;13.692;2022-08-03T03:38:14;4.80;;;4.07;;
3757;SDS011;1894;51.038;13.692;2022-08-03T03:40:42;4.73;;;4.33;;
3757;SDS011;1894;51.038;13.692;2022-08-03T03:43:09;4.50;;;4.10;;
3757;SDS011;1894;51.038;13.692;2022-08-03T03:45:39;4.90;;;4.50;;
3757;SDS011;1894;51.038;13.692;2022-08-03T03:48:07;4.33;;;3.93;;
3757;SDS011;1894;51.038;13.692;2022-08-03T03:50:35;5.07;;;4.60;;
3757;SDS011;1894;51.038;13.692;2022-08-03T03:53:04;5.93;;;4.27;;
3757;SDS011;1894;51.038;13.692;2022-08-03T03:55:34;5.30;;;4.57;;
3757;SDS011;1894;51.038;13.692;2022-08-03T03:58:25;9.00;;;4.27;;
3757;SDS011;1894;51.038;13.692;2022-08-03T04:00:52;5.77;;;4.50;;
3757;SDS011;1894;51.038;13.692;2022-08-03T04:03:19;6.90;;;5.93;;
3757;SDS011;1894;51.038;13.692;2022-08-03T04:05:46;7.13;;;4.50;;
3757;SDS011;1894;51.038;13.692;2022-08-03T04:08:32;5.33;;;4.10;;
3757;SDS011;1894;51.038;13.692;2022-08-03T04:14:23;7.73;;;4.40;;
3757;SDS011;1894;51.038;13.692;2022-08-03T04:16:54;4.77;;;4.37;;
3757;SDS011;1894;51.038;13.692;2022-08-03T04:19:41;6.00;;;4.03;;
3757;SDS011;1894;51.038;13.692;2022-08-03T04:22:13;4.50;;;4.10;;
3757;SDS011;1894;51.038;13.692;2022-08-03T04:24:49;7.20;;;4.73;;
3757;SDS011;1894;51.038;13.692;2022-08-03T04:27:22;7.60;;;3.97;;
3757;SDS011;1894;51.038;13.692;2022-08-03T04:29:53;8.80;;;4.27;;
3757;SDS011;1894;51.038;13.692;2022-08-03T04:32:22;4.03;;;3.73;;
3757;SDS011;1894;51.038;13.692;2022-08-03T04:34:51;5.17;;;4.67;;
3757;SDS011;1894;51.038;13.692;2022-08-03T04:37:38;4.63;;;4.23;;
3757;SDS011;1894;51.038;13.692;2022-08-03T04:40:09;7.67;;;5.80;;
3757;SDS011;1894;51.038;13.692;2022-08-03T04:42:41;4.57;;;4.10;;
3757;SDS011;1894;51.038;13.692;2022-08-03T04:45:10;6.50;;;3.90;;
3757;SDS011;1894;51.038;13.692;2022-08-03T04:47:38;5.60;;;3.70;;
3757;SDS011;1894;51.038;13.692;2022-08-03T04:50:06;8.53;;;5.17;;
3757;SDS011;1894;51.038;13.692;2022-08-03T04:52:39;4.90;;;3.80;;
3757;SDS011;1894;51.038;13.692;2022-08-03T04:55:06;4.57;;;4.13;;
3757;SDS011;1894;51.038;13.692;2022-08-03T04:57:33;4.53;;;4.07;;
3757;SDS011;1894;51.038;13.692;2022-08-03T05:00:00;5.23;;;3.77;;
3757;SDS011;1894;51.038;13.692;2022-08-03T05:02:29;6.07;;;3.87;;
3757;SDS011;1894;51.038;13.692;2022-08-03T05:04:57;5.70;;;3.97;;
3757;SDS011;1894;51.038;13.692;2022-08-03T05:07:26;5.40;;;4.50;;
3757;SDS011;1894;51.038;13.692;2022-08-03T05:10:05;10.60;;;4.37;;
3757;SDS011;1894;51.038;13.692;2022-08-03T05:12:41;10.13;;;4.20;;
3757;SDS011;1894;51.038;13.692;2022-08-03T05:15:08;3.97;;;3.60;;
3757;SDS011;1894;51.038;13.692;2022-08-03T05:17:37;6.23;;;4.00;;
3757;SDS011;1894;51.038;13.692;2022-08-03T05:20:04;4.67;;;3.60;;
3757;SDS011;1894;51.038;13.692;2022-08-03T05:22:32;8.80;;;4.37;;
3757;SDS011;1894;51.038;13.692;2022-08-03T05:24:59;5.53;;;4.10;;
3757;SDS011;1894;51.038;13.692;2022-08-03T05:27:27;4.90;;;3.30;;
3757;SDS011;1894;51.038;13.692;2022-08-03T05:29:54;4.83;;;3.60;;
3757;SDS011;1894;51.038;13.692;2022-08-03T05:32:41;5.43;;;3.00;;
3757;SDS011;1894;51.038;13.692;2022-08-03T05:35:08;4.30;;;3.07;;
3757;SDS011;1894;51.038;13.692;2022-08-03T05:37:55;9.60;;;3.60;;
3757;SDS011;1894;51.038;13.692;2022-08-03T05:40:22;5.47;;;3.60;;
3757;SDS011;1894;51.038;13.692;2022-08-03T05:42:52;4.93;;;3.00;;
3757;SDS011;1894;51.038;13.692;2022-08-03T05:45:19;5.73;;;3.70;;
3757;SDS011;1894;51.038;13.692;2022-08-03T05:47:51;3.70;;;3.23;;
3757;SDS011;1894;51.038;13.692;2022-08-03T05:50:19;12.30;;;3.30;;
3757;SDS011;1894;51.038;13.692;2022-08-03T05:52:47;6.10;;;3.47;;
3757;SDS011;1894;51.038;13.692;2022-08-03T05:55:14;4.13;;;3.37;;
3757;SDS011;1894;51.038;13.692;2022-08-03T05:57:42;8.23;;;3.77;;
3757;SDS011;1894;51.038;13.692;2022-08-03T06:00:14;5.30;;;3.70;;
3757;SDS011;1894;51.038;13.692;2022-08-03T06:02:41;12.10;;;3.50;;
3757;SDS011;1894;51.038;13.692;2022-08-03T06:05:08;9.67;;;3.00;;
3757;SDS011;1894;51.038;13.692;2022-08-03T06:07:36;3.50;;;3.07;;
3757;SDS011;1894;51.038;13.692;2022-08-03T06:10:03;3.70;;;2.87;;
3757;SDS011;1894;51.038;13.692;2022-08-03T06:12:51;6.03;;;3.57;;
3757;SDS011;1894;51.038;13.692;2022-08-03T06:15:19;3.17;;;2.97;;
3757;SDS011;1894;51.038;13.692;2022-08-03T06:17:49;3.37;;;3.07;;
3757;SDS011;1894;51.038;13.692;2022-08-03T06:20:17;3.50;;;3.20;;
3757;SDS011;1894;51.038;13.692;2022-08-03T06:22:46;3.23;;;2.33;;
3757;SDS011;1894;51.038;13.692;2022-08-03T06:25:25;4.20;;;2.20;;
3757;SDS011;1894;51.038;13.692;2022-08-03T06:27:52;4.93;;;3.10;;
3757;SDS011;1894;51.038;13.692;2022-08-03T06:30:20;5.87;;;3.10;;
3757;SDS011;1894;51.038;13.692;2022-08-03T06:32:47;6.47;;;2.63;;
3757;SDS011;1894;51.038;13.692;2022-08-03T06:35:17;4.00;;;3.10;;
3757;SDS011;1894;51.038;13.692;2022-08-03T06:37:46;16.47;;;2.93;;
3757;SDS011;1894;51.038;13.692;2022-08-03T06:40:18;6.73;;;2.40;;
3757;SDS011;1894;51.038;13.692;2022-08-03T06:42:55;4.90;;;2.37;;
3757;SDS011;1894;51.038;13.692;2022-08-03T06:45:23;4.20;;;3.10;;
3757;SDS011;1894;51.038;13.692;2022-08-03T06:48:03;8.40;;;2.90;;
3757;SDS011;1894;51.038;13.692;2022-08-03T06:50:33;3.53;;;2.50;;
3757;SDS011;1894;51.038;13.692;2022-08-03T06:53:02;10.33;;;2.70;;
3757;SDS011;1894;51.038;13.692;2022-08-03T06:55:30;4.80;;;2.47;;
3757;SDS011;1894;51.038;13.692;2022-08-03T06:57:58;7.27;;;2.87;;
3757;SDS011;1894;51.038;13.692;2022-08-03T07:00:29;10.83;;;2.90;;
3757;SDS011;1894;51.038;13.692;2022-08-03T07:02:56;6.20;;;3.03;;
3757;SDS011;1894;51.038;13.692;2022-08-03T07:05:24;7.93;;;3.40;;
3757;SDS011;1894;51.038;13.692;2022-08-03T07:07:54;14.87;;;3.20;;
3757;SDS011;1894;51.038;13.692;2022-08-03T07:10:22;4.30;;;3.90;;
3757;SDS011;1894;51.038;13.692;2022-08-03T07:12:50;9.53;;;3.20;;
3757;SDS011;1894;51.038;13.692;2022-08-03T07:15:22;8.20;;;3.17;;
3757;SDS011;1894;51.038;13.692;2022-08-03T07:18:09;4.93;;;2.87;;
3757;SDS011;1894;51.038;13.692;2022-08-03T07:20:36;4.13;;;3.17;;
3757;SDS011;1894;51.038;13.692;2022-08-03T07:23:03;5.70;;;2.87;;
3757;SDS011;1894;51.038;13.692;2022-08-03T07:25:30;5.73;;;2.93;;
3757;SDS011;1894;51.038;13.692;2022-08-03T07:27:57;9.80;;;3.50;;
3757;SDS011;1894;51.038;13.692;2022-08-03T07:30:25;5.83;;;3.50;;
3757;SDS011;1894;51.038;13.692;2022-08-03T07:32:52;3.43;;;3.13;;
3757;SDS011;1894;51.038;13.692;2022-08-03T07:35:19;7.30;;;3.10;;
3757;SDS011;1894;51.038;13.692;2022-08-03T07:37:51;7.03;;;3.57;;
3757;SDS011;1894;51.038;13.692;2022-08-03T07:40:20;9.60;;;3.33;;
3757;SDS011;1894;51.038;13.692;2022-08-03T07:42:48;5.93;;;3.27;;
3757;SDS011;1894;51.038;13.692;2022-08-03T07:45:19;3.73;;;2.43;;
3757;SDS011;1894;51.038;13.692;2022-08-03T07:47:48;8.80;;;3.20;;
3757;SDS011;1894;51.038;13.692;2022-08-03T07:50:19;9.37;;;2.50;;
3757;SDS011;1894;51.038;13.692;2022-08-03T07:52:46;15.33;;;2.83;;
3757;SDS011;1894;51.038;13.692;2022-08-03T07:55:14;5.60;;;2.40;;
3757;SDS011;1894;51.038;13.692;2022-08-03T07:57:41;7.63;;;3.13;;
3757;SDS011;1894;51.038;13.692;2022-08-03T08:00:16;7.20;;;3.67;;
3757;SDS011;1894;51.038;13.692;2022-08-03T08:02:44;5.43;;;2.73;;
3757;SDS011;1894;51.038;13.692;2022-08-03T08:05:11;4.40;;;3.10;;
3757;SDS011;1894;51.038;13.692;2022-08-03T08:07:39;6.90;;;2.80;;
3757;SDS011;1894;51.038;13.692;2022-08-03T08:10:06;6.57;;;3.00;;
3757;SDS011;1894;51.038;13.692;2022-08-03T08:12:36;4.00;;;3.00;;
3757;SDS011;1894;51.038;13.692;2022-08-03T08:15:04;6.40;;;2.13;;
3757;SDS011;1894;51.038;13.692;2022-08-03T08:20:32;2.73;;;2.47;;
3757;SDS011;1894;51.038;13.692;2022-08-03T08:23:04;4.57;;;2.70;;
3757;SDS011;1894;51.038;13.692;2022-08-03T08:25:52;4.80;;;3.03;;
3757;SDS011;1894;51.038;13.692;2022-08-03T08:28:20;4.10;;;1.90;;
3757;SDS011;1894;51.038;13.692;2022-08-03T08:30:58;3.40;;;2.67;;
3757;SDS011;1894;51.038;13.692;2022-08-03T08:33:25;5.93;;;3.10;;
3757;SDS011;1894;51.038;13.692;2022-08-03T08:36:07;7.93;;;2.60;;
3757;SDS011;1894;51.038;13.692;2022-08-03T08:38:40;4.23;;;2.20;;
3757;SDS011;1894;51.038;13.692;2022-08-03T08:41:10;5.50;;;2.33;;
3757;SDS011;1894;51.038;13.692;2022-08-03T08:43:38;5.27;;;2.40;;
3757;SDS011;1894;51.038;13.692;2022-08-03T08:46:06;6.43;;;2.77;;
3757;SDS011;1894;51.038;13.692;2022-08-03T08:48:41;5.70;;;2.33;;
3757;SDS011;1894;51.038;13.692;2022-08-03T08:51:10;2.10;;;1.57;;
3757;SDS011;1894;51.038;13.692;2022-08-03T08:53:40;4.90;;;2.00;;
3757;SDS011;1894;51.038;13.692;2022-08-03T08:56:11;6.50;;;2.30;;
3757;SDS011;1894;51.038;13.692;2022-08-03T08:58:53;2.80;;;2.37;;
3757;SDS011;1894;51.038;13.692;2022-08-03T09:01:24;5.10;;;2.60;;
3757;SDS011;1894;51.038;13.692;2022-08-03T09:03:52;12.43;;;2.43;;
3757;SDS011;1894;51.038;13.692;2022-08-03T09:06:22;5.70;;;2.00;;
3757;SDS011;1894;51.038;13.692;2022-08-03T09:08:49;3.33;;;2.23;;
3757;SDS011;1894;51.038;13.692;2022-08-03T09:11:19;3.10;;;1.73;;
3757;SDS011;1894;51.038;13.692;2022-08-03T09:14:08;2.90;;;1.80;;
3757;SDS011;1894;51.038;13.692;2022-08-03T09:16:56;4.77;;;2.93;;
3757;SDS011;1894;51.038;13.692;2022-08-03T09:19:26;2.40;;;1.83;;
3757;SDS011;1894;51.038;13.692;2022-08-03T09:22:08;13.70;;;2.20;;
3757;SDS011;1894;51.038;13.692;2022-08-03T09:24:52;7.37;;;1.67;;
3757;SDS011;1894;51.038;13.692;2022-08-03T09:27:45;2.13;;;1.93;;
3757;SDS011;1894;51.038;13.692;2022-08-03T09:30:13;1.50;;;1.40;;
3757;SDS011;1894;51.038;13.692;2022-08-03T09:33:00;2.13;;;1.93;;
3757;SDS011;1894;51.038;13.692;2022-08-03T09:35:32;2.97;;;1.60;;
3757;SDS011;1894;51.038;13.692;2022-08-03T09:38:20;2.23;;;1.83;;
3757;SDS011;1894;51.038;13.692;2022-08-03T09:40:49;2.00;;;1.60;;
3757;SDS011;1894;51.038;13.692;2022-08-03T09:43:22;2.70;;;2.50;;
3757;SDS011;1894;51.038;13.692;2022-08-03T09:45:51;6.43;;;2.03;;
3757;SDS011;1894;51.038;13.692;2022-08-03T09:48:29;3.40;;;2.43;;
3757;SDS011;1894;51.038;13.692;2022-08-03T09:50:57;2.70;;;2.40;;
3757;SDS011;1894;51.038;13.692;2022-08-03T09:53:46;2.10;;;1.83;;
3757;SDS011;1894;51.038;13.692;2022-08-03T09:56:36;3.63;;;1.93;;
3757;SDS011;1894;51.038;13.692;2022-08-03T09:59:10;3.00;;;1.63;;
3757;SDS011;1894;51.038;13.692;2022-08-03T10:01:39;2.20;;;2.10;;
3757;SDS011;1894;51.038;13.692;2022-08-03T10:04:11;2.30;;;2.10;;
3757;SDS011;1894;51.038;13.692;2022-08-03T10:06:45;3.53;;;1.97;;
3757;SDS011;1894;51.038;13.692;2022-08-03T10:09:27;2.20;;;1.90;;
3757;SDS011;1894;51.038;13.692;2022-08-03T10:11:54;2.60;;;2.27;;
3757;SDS011;1894;51.038;13.692;2022-08-03T10:14:21;7.50;;;1.93;;
3757;SDS011;1894;51.038;13.692;2022-08-03T10:16:49;2.17;;;1.40;;
3757;SDS011;1894;51.038;13.692;2022-08-03T10:19:16;2.90;;;1.83;;
3757;SDS011;1894;51.038;13.692;2022-08-03T10:21:51;4.23;;;1.87;;
3757;SDS011;1894;51.038;13.692;2022-08-03T10:24:24;3.37;;;1.83;;
3757;SDS011;1894;51.038;13.692;2022-08-03T10:27:02;4.63;;;2.30;;
3757;SDS011;1894;51.038;13.692;2022-08-03T10:29:34;4.00;;;2.20;;
3757;SDS011;1894;51.038;13.692;2022-08-03T10:32:14;6.17;;;2.13;;
3757;SDS011;1894;51.038;13.692;2022-08-03T10:34:49;1.80;;;1.70;;
3757;SDS011;1894;51.038;13.692;2022-08-03T10:37:25;12.33;;;2.23;;
3757;SDS011;1894;51.038;13.692;2022-08-03T10:39:55;3.57;;;1.97;;
3757;SDS011;1894;51.038;13.692;2022-08-03T10:42:25;3.67;;;1.80;;
3757;SDS011;1894;51.038;13.692;2022-08-03T10:45:02;4.30;;;2.00;;
3757;SDS011;1894;51.038;13.692;2022-08-03T10:47:29;4.20;;;2.27;;
3757;SDS011;1894;51.038;13.692;2022-08-03T10:49:57;3.37;;;2.20;;
3757;SDS011;1894;51.038;13.692;2022-08-03T10:52:25;2.70;;;1.97;;
3757;SDS011;1894;51.038;13.692;2022-08-03T10:55:01;3.93;;;2.10;;
3757;SDS011;1894;51.038;13.692;2022-08-03T10:58:06;6.20;;;1.73;;
3757;SDS011;1894;51.038;13.692;2022-08-03T11:00:47;3.63;;;1.70;;
3757;SDS011;1894;51.038;13.692;2022-08-03T11:03:15;5.00;;;2.10;;
3757;SDS011;1894;51.038;13.692;2022-08-03T11:05:44;3.50;;;2.00;;
3757;SDS011;1894;51.038;13.692;2022-08-03T11:10:46;5.13;;;2.00;;
3757;SDS011;1894;51.038;13.692;2022-08-03T11:13:14;1.80;;;1.70;;
3757;SDS011;1894;51.038;13.692;2022-08-03T11:15:44;1.80;;;1.70;;
3757;SDS011;1894;51.038;13.692;2022-08-03T11:18:12;3.40;;;1.40;;
3757;SDS011;1894;51.038;13.692;2022-08-03T11:20:54;3.73;;;1.90;;
3757;SDS011;1894;51.038;13.692;2022-08-03T11:26:27;7.77;;;1.70;;
3757;SDS011;1894;51.038;13.692;2022-08-03T11:29:06;2.23;;;1.90;;
3757;SDS011;1894;51.038;13.692;2022-08-03T11:31:56;1.70;;;1.60;;
3757;SDS011;1894;51.038;13.692;2022-08-03T11:34:23;5.23;;;1.97;;
3757;SDS011;1894;51.038;13.692;2022-08-03T11:39:58;3.47;;;1.60;;
3757;SDS011;1894;51.038;13.692;2022-08-03T11:45:00;1.90;;;1.67;;
3757;SDS011;1894;51.038;13.692;2022-08-03T11:47:35;5.70;;;1.83;;
3757;SDS011;1894;51.038;13.692;2022-08-03T11:50:16;2.13;;;1.87;;
3757;SDS011;1894;51.038;13.692;2022-08-03T11:52:45;7.97;;;2.40;;
3757;SDS011;1894;51.038;13.692;2022-08-03T11:55:14;1.83;;;1.70;;
3757;SDS011;1894;51.038;13.692;2022-08-03T11:57:42;2.40;;;1.53;;
3757;SDS011;1894;51.038;13.692;2022-08-03T12:00:32;2.33;;;1.53;;
3757;SDS011;1894;51.038;13.692;2022-08-03T12:03:03;3.53;;;1.50;;
3757;SDS011;1894;51.038;13.692;2022-08-03T12:10:54;6.03;;;1.20;;
3757;SDS011;1894;51.038;13.692;2022-08-03T12:13:22;1.50;;;1.20;;
3757;SDS011;1894;51.038;13.692;2022-08-03T12:16:20;6.43;;;1.00;;
3757;SDS011;1894;51.038;13.692;2022-08-03T12:18:55;11.07;;;1.00;;
3757;SDS011;1894;51.038;13.692;2022-08-03T12:21:24;2.13;;;0.90;;
3757;SDS011;1894;51.038;13.692;2022-08-03T12:24:12;0.90;;;0.90;;
3757;SDS011;1894;51.038;13.692;2022-08-03T12:26:46;1.10;;;1.00;;
3757;SDS011;1894;51.038;13.692;2022-08-03T12:29:24;4.20;;;0.80;;
3757;SDS011;1894;51.038;13.692;2022-08-03T12:31:52;2.10;;;1.00;;
3757;SDS011;1894;51.038;13.692;2022-08-03T12:34:21;3.60;;;1.00;;
3757;SDS011;1894;51.038;13.692;2022-08-03T12:36:49;1.17;;;0.93;;
3757;SDS011;1894;51.038;13.692;2022-08-03T12:39:21;2.63;;;1.00;;
3757;SDS011;1894;51.038;13.692;2022-08-03T12:41:53;2.10;;;1.10;;
3757;SDS011;1894;51.038;13.692;2022-08-03T12:44:29;2.50;;;1.27;;
3757;SDS011;1894;51.038;13.692;2022-08-03T12:47:01;4.80;;;1.20;;
3757;SDS011;1894;51.038;13.692;2022-08-03T12:49:43;1.10;;;1.00;;
3757;SDS011;1894;51.038;13.692;2022-08-03T12:52:14;4.23;;;0.90;;
3757;SDS011;1894;51.038;13.692;2022-08-03T12:54:42;1.63;;;0.70;;
3757;SDS011;1894;51.038;13.692;2022-08-03T12:57:19;1.80;;;1.40;;
3757;SDS011;1894;51.038;13.692;2022-08-03T12:59:46;0.90;;;0.80;;
3757;SDS011;1894;51.038;13.692;2022-08-03T13:02:22;1.37;;;0.90;;
3757;SDS011;1894;51.038;13.692;2022-08-03T13:04:52;9.37;;;0.90;;
3757;SDS011;1894;51.038;13.692;2022-08-03T13:07:20;3.43;;;1.30;;
3757;SDS011;1894;51.038;13.692;2022-08-03T13:09:49;2.10;;;0.90;;
3757;SDS011;1894;51.038;13.692;2022-08-03T13:12:21;1.90;;;0.80;;
3757;SDS011;1894;51.038;13.692;2022-08-03T13:14:51;1.80;;;1.03;;
3757;SDS011;1894;51.038;13.692;2022-08-03T13:17:23;2.37;;;0.70;;
3757;SDS011;1894;51.038;13.692;2022-08-03T13:19:51;2.53;;;0.90;;
3757;SDS011;1894;51.038;13.692;2022-08-03T13:22:22;5.53;;;0.80;;
3757;SDS011;1894;51.038;13.692;2022-08-03T13:24:56;4.10;;;0.80;;
3757;SDS011;1894;51.038;13.692;2022-08-03T13:27:23;1.53;;;0.83;;
3757;SDS011;1894;51.038;13.692;2022-08-03T13:30:11;2.10;;;0.77;;
3757;SDS011;1894;51.038;13.692;2022-08-03T13:32:43;2.50;;;0.80;;
3757;SDS011;1894;51.038;13.692;2022-08-03T13:35:10;3.47;;;1.00;;
3757;SDS011;1894;51.038;13.692;2022-08-03T13:37:41;0.90;;;0.80;;
3757;SDS011;1894;51.038;13.692;2022-08-03T13:40:14;1.27;;;0.90;;
3757;SDS011;1894;51.038;13.692;2022-08-03T13:42:42;2.67;;;0.80;;
3757;SDS011;1894;51.038;13.692;2022-08-03T13:45:09;4.87;;;0.80;;
3757;SDS011;1894;51.038;13.692;2022-08-03T13:47:36;2.27;;;1.40;;
3757;SDS011;1894;51.038;13.692;2022-08-03T13:50:03;1.10;;;0.90;;
3757;SDS011;1894;51.038;13.692;2022-08-03T13:52:32;3.33;;;0.80;;
3757;SDS011;1894;51.038;13.692;2022-08-03T13:55:01;2.00;;;0.70;;
3757;SDS011;1894;51.038;13.692;2022-08-03T13:57:32;2.73;;;0.83;;
3757;SDS011;1894;51.038;13.692;2022-08-03T14:00:20;4.13;;;1.13;;
3757;SDS011;1894;51.038;13.692;2022-08-03T14:02:55;5.10;;;0.80;;
3757;SDS011;1894;51.038;13.692;2022-08-03T14:05:41;8.00;;;0.80;;
3757;SDS011;1894;51.038;13.692;2022-08-03T14:08:09;3.93;;;1.13;;
3757;SDS011;1894;51.038;13.692;2022-08-03T14:10:38;1.70;;;0.80;;
3757;SDS011;1894;51.038;13.692;2022-08-03T14:13:09;3.60;;;0.90;;
3757;SDS011;1894;51.038;13.692;2022-08-03T14:15:37;2.80;;;0.80;;
3757;SDS011;1894;51.038;13.692;2022-08-03T14:18:07;1.47;;;0.80;;
3757;SDS011;1894;51.038;13.692;2022-08-03T14:20:38;3.80;;;0.97;;
3757;SDS011;1894;51.038;13.692;2022-08-03T14:23:19;1.13;;;0.90;;
3757;SDS011;1894;51.038;13.692;2022-08-03T14:25:47;0.90;;;0.70;;
3757;SDS011;1894;51.038;13.692;2022-08-03T14:28:18;7.70;;;1.13;;
3757;SDS011;1894;51.038;13.692;2022-08-03T14:30:51;5.80;;;0.90;;
3757;SDS011;1894;51.038;13.692;2022-08-03T14:33:19;3.40;;;1.00;;
3757;SDS011;1894;51.038;13.692;2022-08-03T14:35:47;0.90;;;0.80;;
3757;SDS011;1894;51.038;13.692;2022-08-03T14:38:29;3.93;;;0.80;;
3757;SDS011;1894;51.038;13.692;2022-08-03T14:40:56;5.13;;;1.00;;
3757;SDS011;1894;51.038;13.692;2022-08-03T14:43:23;0.80;;;0.80;;
3757;SDS011;1894;51.038;13.692;2022-08-03T14:45:59;3.00;;;1.00;;
3757;SDS011;1894;51.038;13.692;2022-08-03T14:48:26;3.73;;;0.67;;
3757;SDS011;1894;51.038;13.692;2022-08-03T14:51:13;1.77;;;0.90;;
3757;SDS011;1894;51.038;13.692;2022-08-03T14:53:40;1.37;;;0.80;;
3757;SDS011;1894;51.038;13.692;2022-08-03T14:56:07;5.70;;;1.00;;
3757;SDS011;1894;51.038;13.692;2022-08-03T14:58:36;4.00;;;0.80;;
3757;SDS011;1894;51.038;13.692;2022-08-03T15:01:03;0.80;;;0.80;;
3757;SDS011;1894;51.038;13.692;2022-08-03T15:03:52;5.33;;;0.90;;
3757;SDS011;1894;51.038;13.692;2022-08-03T15:06:19;1.40;;;0.80;;
3757;SDS011;1894;51.038;13.692;2022-08-03T15:08:46;2.50;;;0.80;;
3757;SDS011;1894;51.038;13.692;2022-08-03T15:11:35;2.20;;;1.00;;
3757;SDS011;1894;51.038;13.692;2022-08-03T15:14:02;10.50;;;1.13;;
3757;SDS011;1894;51.038;13.692;2022-08-03T15:16:34;0.80;;;0.80;;
3757;SDS011;1894;51.038;13.692;2022-08-03T15:19:01;3.13;;;1.00;;
3757;SDS011;1894;51.038;13.692;2022-08-03T15:21:49;2.20;;;0.80;;
3757;SDS011;1894;51.038;13.692;2022-08-03T15:24:16;1.77;;;1.00;;
3757;SDS011;1894;51.038;13.692;2022-08-03T15:26:43;1.27;;;0.80;;
3757;SDS011;1894;51.038;13.692;2022-08-03T15:29:10;0.93;;;0.83;;
3757;SDS011;1894;51.038;13.692;2022-08-03T15:31:59;2.10;;;0.80;;
3757;SDS011;1894;51.038;13.692;2022-08-03T15:34:26;2.83;;;0.70;;
3757;SDS011;1894;51.038;13.692;2022-08-03T15:36:53;0.77;;;0.77;;
3757;SDS011;1894;51.038;13.692;2022-08-03T15:39:20;3.80;;;0.80;;
3757;SDS011;1894;51.038;13.692;2022-08-03T15:41:47;4.83;;;0.90;;
3757;SDS011;1894;51.038;13.692;2022-08-03T15:44:17;5.47;;;0.80;;
3757;SDS011;1894;51.038;13.692;2022-08-03T15:46:44;2.70;;;0.87;;
3757;SDS011;1894;51.038;13.692;2022-08-03T15:49:13;0.70;;;0.70;;
3757;SDS011;1894;51.038;13.692;2022-08-03T15:51:40;0.73;;;0.73;;
3757;SDS011;1894;51.038;13.692;2022-08-03T15:54:07;1.37;;;0.80;;
3757;SDS011;1894;51.038;13.692;2022-08-03T15:56:34;2.20;;;0.80;;
3757;SDS011;1894;51.038;13.692;2022-08-03T15:59:01;3.70;;;0.60;;
3757;SDS011;1894;51.038;13.692;2022-08-03T16:01:39;2.50;;;0.90;;
3757;SDS011;1894;51.038;13.692;2022-08-03T16:04:06;1.77;;;0.80;;
3757;SDS011;1894;51.038;13.692;2022-08-03T16:06:33;1.23;;;0.80;;